sensor_id;sensor_type;location;lat;lon;timestamp;pressure;altitude;pressure_sealevel;temperature;humidity
30338;BME280;17143;51.888;5.408;2023-02-12T00:01:24;103683.19;;;8.78;100.00
30338;BME280;17143;51.888;5.408;2023-02-12T00:16:27;103682.88;;;8.75;100.00
30338;BME280;17143;51.888;5.408;2023-02-12T00:31:30;103685.31;;;8.73;100.00
30338;BME280;17143;51.888;5.408;2023-02-12T00:46:32;103688.31;;;8.69;100.00
30338;BME280;17143;51.888;5.408;2023-02-12T01:01:34;103691.69;;;8.68;100.00
30338;BME280;17143;51.888;5.408;2023-02-12T01:16:38;103681.13;;;8.67;100.00
30338;BME280;17143;51.888;5.408;2023-02-12T01:31:40;103675.78;;;8.65;100.00
30338;BME280;17143;51.888;5.408;2023-02-12T01:46:43;103678.97;;;8.63;100.00
30338;BME280;17143;51.888;5.408;2023-02-12T02:01:46;103681.72;;;8.64;100.00
30338;BME280;17143;51.888;5.408;2023-02-12T02:16:56;103672.66;;;8.61;100.00
30338;BME280;17143;51.888;5.408;2023-02-12T02:32:04;103661.63;;;8.54;100.00
30338;BME280;17143;51.888;5.408;2023-02-12T02:47:11;103664.16;;;8.46;100.00
30338;BME280;17143;51.888;5.408;2023-02-12T03:02:18;103654.19;;;8.42;100.00
30338;BME280;17143;51.888;5.408;2023-02-12T03:17:23;103644.69;;;8.34;100.00
30338;BME280;17143;51.888;5.408;2023-02-12T03:32:32;103640.97;;;8.32;100.00
30338;BME280;17143;51.888;5.408;2023-02-12T03:47:42;103645.81;;;8.29;100.00
30338;BME280;17143;51.888;5.408;2023-02-12T04:02:46;103661.41;;;8.29;100.00
30338;BME280;17143;51.888;5.408;2023-02-12T04:17:53;103672.91;;;8.31;100.00
30338;BME280;17143;51.888;5.408;2023-02-12T04:32:59;103682.38;;;8.30;100.00
30338;BME280;17143;51.888;5.408;2023-02-12T04:48:04;103679.66;;;8.22;100.00
30338;BME280;17143;51.888;5.408;2023-02-12T05:03:06;103692.63;;;8.22;100.00
30338;BME280;17143;51.888;5.408;2023-02-12T05:18:08;103692.31;;;8.19;100.00
30338;BME280;17143;51.888;5.408;2023-02-12T05:33:10;103691.56;;;8.20;100.00
30338;BME280;17143;51.888;5.408;2023-02-12T05:48:12;103703.75;;;8.21;100.00
30338;BME280;17143;51.888;5.408;2023-02-12T06:03:14;103700.03;;;8.26;100.00
30338;BME280;17143;51.888;5.408;2023-02-12T06:18:16;103706.88;;;8.25;100.00
30338;BME280;17143;51.888;5.408;2023-02-12T06:33:18;103705.63;;;8.22;100.00
30338;BME280;17143;51.888;5.408;2023-02-12T06:48:20;103714.59;;;8.17;100.00
30338;BME280;17143;51.888;5.408;2023-02-12T07:03:22;103720.22;;;8.13;100.00
30338;BME280;17143;51.888;5.408;2023-02-12T07:18:24;103745.59;;;8.15;100.00
30338;BME280;17143;51.888;5.408;2023-02-12T07:33:26;103744.66;;;8.15;100.00
30338;BME280;17143;51.888;5.408;2023-02-12T07:48:28;103752.25;;;8.13;100.00
30338;BME280;17143;51.888;5.408;2023-02-12T08:03:30;103760.59;;;8.18;100.00
30338;BME280;17143;51.888;5.408;2023-02-12T08:18:33;103775.34;;;8.26;100.00
30338;BME280;17143;51.888;5.408;2023-02-12T08:33:35;103794.72;;;8.36;100.00
30338;BME280;17143;51.888;5.408;2023-02-12T08:48:38;103806.69;;;8.43;100.00
30338;BME280;17143;51.888;5.408;2023-02-12T09:03:40;103809.19;;;8.50;100.00
30338;BME280;17143;51.888;5.408;2023-02-12T09:18:43;103810.56;;;8.62;100.00
30338;BME280;17143;51.888;5.408;2023-02-12T09:33:45;103823.06;;;8.73;100.00
30338;BME280;17143;51.888;5.408;2023-02-12T09:48:54;103816.56;;;8.85;100.00
30338;BME280;17143;51.888;5.408;2023-02-12T10:04:00;103825.03;;;8.91;100.00
30338;BME280;17143;51.888;5.408;2023-02-12T10:19:16;103828.31;;;8.97;100.00
30338;BME280;17143;51.888;5.408;2023-02-12T10:34:27;103818.88;;;9.06;100.00
30338;BME280;17143;51.888;5.408;2023-02-12T10:49:31;103823.56;;;9.17;100.00
30338;BME280;17143;51.888;5.408;2023-02-12T11:04:34;103825.47;;;9.27;100.00
30338;BME280;17143;51.888;5.408;2023-02-12T11:19:36;103821.84;;;9.34;100.00
30338;BME280;17143;51.888;5.408;2023-02-12T11:34:38;103812.09;;;9.40;100.00
30338;BME280;17143;51.888;5.408;2023-02-12T11:49:42;103812.13;;;9.48;100.00
30338;BME280;17143;51.888;5.408;2023-02-12T12:04:51;103793.84;;;9.64;100.00
30338;BME280;17143;51.888;5.408;2023-02-12T12:19:56;103777.34;;;9.72;100.00
30338;BME280;17143;51.888;5.408;2023-02-12T12:35:00;103770.66;;;9.74;100.00
30338;BME280;17143;51.888;5.408;2023-02-12T12:50:17;103756.38;;;9.70;100.00
30338;BME280;17143;51.888;5.408;2023-02-12T13:06:00;103743.81;;;9.75;100.00
30338;BME280;17143;51.888;5.408;2023-02-12T13:21:12;103729.91;;;9.83;100.00
30338;BME280;17143;51.888;5.408;2023-02-12T13:36:17;103717.69;;;9.82;100.00
30338;BME280;17143;51.888;5.408;2023-02-12T13:51:27;103714.94;;;9.89;100.00
30338;BME280;17143;51.888;5.408;2023-02-12T14:06:31;103707.56;;;9.85;98.83
30338;BME280;17143;51.888;5.408;2023-02-12T14:21:36;103695.03;;;9.90;99.88
30338;BME280;17143;51.888;5.408;2023-02-12T14:36:39;103689.97;;;9.91;99.73
30338;BME280;17143;51.888;5.408;2023-02-12T14:51:49;103673.56;;;9.84;98.59
30338;BME280;17143;51.888;5.408;2023-02-12T15:06:55;103677.22;;;9.77;97.81
30338;BME280;17143;51.888;5.408;2023-02-12T15:21:59;103671.72;;;9.74;98.57
30338;BME280;17143;51.888;5.408;2023-02-12T15:37:02;103679.03;;;9.61;97.01
30338;BME280;17143;51.888;5.408;2023-02-12T15:52:09;103662.00;;;9.56;97.57
30338;BME280;17143;51.888;5.408;2023-02-12T16:07:12;103656.94;;;9.49;97.70
30338;BME280;17143;51.888;5.408;2023-02-12T16:22:16;103651.88;;;9.42;98.09
30338;BME280;17143;51.888;5.408;2023-02-12T16:37:43;103658.28;;;9.37;98.65
30338;BME280;17143;51.888;5.408;2023-02-12T16:52:45;103669.09;;;9.33;99.31
30338;BME280;17143;51.888;5.408;2023-02-12T17:07:49;103675.53;;;9.28;99.64
30338;BME280;17143;51.888;5.408;2023-02-12T17:22:53;103676.41;;;9.19;100.00
30338;BME280;17143;51.888;5.408;2023-02-12T17:37:56;103676.94;;;9.08;99.85
30338;BME280;17143;51.888;5.408;2023-02-12T17:52:58;103682.28;;;9.01;99.97
30338;BME280;17143;51.888;5.408;2023-02-12T18:08:00;103696.81;;;8.99;100.00
30338;BME280;17143;51.888;5.408;2023-02-12T18:23:02;103701.94;;;8.91;100.00
30338;BME280;17143;51.888;5.408;2023-02-12T18:38:04;103699.19;;;8.89;100.00
30338;BME280;17143;51.888;5.408;2023-02-12T18:53:06;103706.38;;;8.92;100.00
30338;BME280;17143;51.888;5.408;2023-02-12T19:08:08;103691.88;;;8.94;100.00
30338;BME280;17143;51.888;5.408;2023-02-12T19:23:10;103689.09;;;8.92;100.00
30338;BME280;17143;51.888;5.408;2023-02-12T19:38:12;103685.34;;;8.82;100.00
30338;BME280;17143;51.888;5.408;2023-02-12T19:53:14;103677.72;;;8.83;100.00
30338;BME280;17143;51.888;5.408;2023-02-12T20:08:16;103676.94;;;8.84;100.00
30338;BME280;17143;51.888;5.408;2023-02-12T20:23:19;103668.84;;;8.81;100.00
30338;BME280;17143;51.888;5.408;2023-02-12T20:38:21;103671.53;;;8.74;100.00
30338;BME280;17143;51.888;5.408;2023-02-12T20:53:23;103651.19;;;8.70;100.00
30338;BME280;17143;51.888;5.408;2023-02-12T21:08:25;103651.47;;;8.65;100.00
30338;BME280;17143;51.888;5.408;2023-02-12T21:23:27;103651.56;;;8.57;100.00
30338;BME280;17143;51.888;5.408;2023-02-12T21:38:32;103662.56;;;8.55;100.00
30338;BME280;17143;51.888;5.408;2023-02-12T21:53:34;103654.44;;;8.52;100.00
30338;BME280;17143;51.888;5.408;2023-02-12T22:08:36;103645.25;;;8.47;100.00
30338;BME280;17143;51.888;5.408;2023-02-12T22:23:38;103645.66;;;8.43;100.00
30338;BME280;17143;51.888;5.408;2023-02-12T22:38:41;103639.72;;;8.44;100.00
30338;BME280;17143;51.888;5.408;2023-02-12T22:53:43;103630.06;;;8.43;100.00
30338;BME280;17143;51.888;5.408;2023-02-12T23:08:48;103633.09;;;8.39;100.00
30338;BME280;17143;51.888;5.408;2023-02-12T23:23:50;103633.69;;;8.36;100.00
30338;BME280;17143;51.888;5.408;2023-02-12T23:38:52;103618.84;;;8.35;100.00
30338;BME280;17143;51.888;5.408;2023-02-12T23:53:54;103605.19;;;8.29;100.00
